sensor_id;sensor_type;location;lat;lon;timestamp;temperature;humidity
28632;DHT22;15818;45.534;5.292;2022-07-29T00:01:07;21.10;99.90
28632;DHT22;15818;45.534;5.292;2022-07-29T00:03:33;21.00;99.90
28632;DHT22;15818;45.534;5.292;2022-07-29T00:05:58;20.90;99.90
28632;DHT22;15818;45.534;5.292;2022-07-29T00:08:24;20.90;99.90
28632;DHT22;15818;45.534;5.292;2022-07-29T00:10:50;21.00;99.90
28632;DHT22;15818;45.534;5.292;2022-07-29T00:13:16;21.00;99.90
28632;DHT22;15818;45.534;5.292;2022-07-29T00:15:41;21.10;99.90
28632;DHT22;15818;45.534;5.292;2022-07-29T00:18:07;21.20;99.90
28632;DHT22;15818;45.534;5.292;2022-07-29T00:20:33;21.20;99.90
28632;DHT22;15818;45.534;5.292;2022-07-29T00:22:59;21.10;99.90
28632;DHT22;15818;45.534;5.292;2022-07-29T00:25:24;21.20;99.90
28632;DHT22;15818;45.534;5.292;2022-07-29T00:27:50;21.20;99.90
28632;DHT22;15818;45.534;5.292;2022-07-29T00:30:16;21.20;99.90
28632;DHT22;15818;45.534;5.292;2022-07-29T00:32:41;21.20;99.90
28632;DHT22;15818;45.534;5.292;2022-07-29T00:35:08;21.30;99.90
28632;DHT22;15818;45.534;5.292;2022-07-29T00:37:52;21.40;99.90
28632;DHT22;15818;45.534;5.292;2022-07-29T00:40:18;21.30;99.90
28632;DHT22;15818;45.534;5.292;2022-07-29T00:42:45;21.20;99.90
28632;DHT22;15818;45.534;5.292;2022-07-29T00:45:12;21.20;99.90
28632;DHT22;15818;45.534;5.292;2022-07-29T00:47:38;21.10;99.90
28632;DHT22;15818;45.534;5.292;2022-07-29T00:50:05;21.20;99.90
28632;DHT22;15818;45.534;5.292;2022-07-29T00:52:32;21.10;99.90
28632;DHT22;15818;45.534;5.292;2022-07-29T00:54:58;21.00;99.90
28632;DHT22;15818;45.534;5.292;2022-07-29T00:57:24;20.90;99.90
28632;DHT22;15818;45.534;5.292;2022-07-29T00:59:49;20.90;99.90
28632;DHT22;15818;45.534;5.292;2022-07-29T01:02:15;20.80;99.90
28632;DHT22;15818;45.534;5.292;2022-07-29T01:04:41;20.80;99.90
28632;DHT22;15818;45.534;5.292;2022-07-29T01:07:07;20.80;99.90
28632;DHT22;15818;45.534;5.292;2022-07-29T01:09:34;20.90;99.90
28632;DHT22;15818;45.534;5.292;2022-07-29T01:12:02;20.90;99.90
28632;DHT22;15818;45.534;5.292;2022-07-29T01:14:28;20.90;99.90
28632;DHT22;15818;45.534;5.292;2022-07-29T01:17:02;21.00;99.90
28632;DHT22;15818;45.534;5.292;2022-07-29T01:19:56;20.90;99.90
28632;DHT22;15818;45.534;5.292;2022-07-29T01:25:20;20.80;99.90
28632;DHT22;15818;45.534;5.292;2022-07-29T01:28:14;20.70;99.90
28632;DHT22;15818;45.534;5.292;2022-07-29T01:30:44;20.70;99.90
28632;DHT22;15818;45.534;5.292;2022-07-29T01:33:15;20.60;99.90
28632;DHT22;15818;45.534;5.292;2022-07-29T01:36:10;20.50;99.90
28632;DHT22;15818;45.534;5.292;2022-07-29T01:38:40;20.50;99.90
28632;DHT22;15818;45.534;5.292;2022-07-29T01:41:09;20.40;99.90
28632;DHT22;15818;45.534;5.292;2022-07-29T01:46:15;20.20;99.90
28632;DHT22;15818;45.534;5.292;2022-07-29T01:48:54;20.30;99.90
28632;DHT22;15818;45.534;5.292;2022-07-29T01:51:25;20.50;99.90
28632;DHT22;15818;45.534;5.292;2022-07-29T01:54:08;20.50;99.90
28632;DHT22;15818;45.534;5.292;2022-07-29T01:56:38;20.40;99.90
28632;DHT22;15818;45.534;5.292;2022-07-29T01:59:07;20.30;99.90
28632;DHT22;15818;45.534;5.292;2022-07-29T02:01:34;20.50;99.90
28632;DHT22;15818;45.534;5.292;2022-07-29T02:04:06;20.50;99.90
28632;DHT22;15818;45.534;5.292;2022-07-29T02:06:35;20.40;99.90
28632;DHT22;15818;45.534;5.292;2022-07-29T02:09:02;20.30;99.90
28632;DHT22;15818;45.534;5.292;2022-07-29T02:11:31;20.20;99.90
28632;DHT22;15818;45.534;5.292;2022-07-29T02:14:00;20.20;99.90
28632;DHT22;15818;45.534;5.292;2022-07-29T02:16:28;20.10;99.90
28632;DHT22;15818;45.534;5.292;2022-07-29T02:18:56;20.10;99.90
28632;DHT22;15818;45.534;5.292;2022-07-29T02:21:24;20.00;99.90
28632;DHT22;15818;45.534;5.292;2022-07-29T02:23:52;20.00;99.90
28632;DHT22;15818;45.534;5.292;2022-07-29T02:26:20;19.90;99.90
28632;DHT22;15818;45.534;5.292;2022-07-29T02:28:49;19.90;99.90
28632;DHT22;15818;45.534;5.292;2022-07-29T02:31:17;19.90;99.90
28632;DHT22;15818;45.534;5.292;2022-07-29T02:33:46;19.90;99.90
28632;DHT22;15818;45.534;5.292;2022-07-29T02:36:12;19.70;99.90
28632;DHT22;15818;45.534;5.292;2022-07-29T02:38:41;19.60;99.90
28632;DHT22;15818;45.534;5.292;2022-07-29T02:41:29;19.50;99.90
28632;DHT22;15818;45.534;5.292;2022-07-29T02:43:58;19.70;99.90
28632;DHT22;15818;45.534;5.292;2022-07-29T02:46:32;19.80;99.90
28632;DHT22;15818;45.534;5.292;2022-07-29T02:49:26;19.90;99.90
28632;DHT22;15818;45.534;5.292;2022-07-29T02:51:58;19.80;99.90
28632;DHT22;15818;45.534;5.292;2022-07-29T02:54:56;19.80;99.90
28632;DHT22;15818;45.534;5.292;2022-07-29T03:00:11;19.70;99.90
28632;DHT22;15818;45.534;5.292;2022-07-29T03:02:42;19.60;99.90
28632;DHT22;15818;45.534;5.292;2022-07-29T03:05:12;19.60;99.90
28632;DHT22;15818;45.534;5.292;2022-07-29T03:07:41;19.50;99.90
28632;DHT22;15818;45.534;5.292;2022-07-29T03:10:08;19.60;99.90
28632;DHT22;15818;45.534;5.292;2022-07-29T03:12:35;19.60;99.90
28632;DHT22;15818;45.534;5.292;2022-07-29T03:15:02;19.60;99.90
28632;DHT22;15818;45.534;5.292;2022-07-29T03:17:28;19.50;99.90
28632;DHT22;15818;45.534;5.292;2022-07-29T03:19:55;19.60;99.90
28632;DHT22;15818;45.534;5.292;2022-07-29T03:22:21;19.60;99.90
28632;DHT22;15818;45.534;5.292;2022-07-29T03:24:47;19.60;99.90
28632;DHT22;15818;45.534;5.292;2022-07-29T03:27:12;19.50;99.90
28632;DHT22;15818;45.534;5.292;2022-07-29T03:29:38;19.50;99.90
28632;DHT22;15818;45.534;5.292;2022-07-29T03:32:05;19.50;99.90
28632;DHT22;15818;45.534;5.292;2022-07-29T03:34:31;19.50;99.90
28632;DHT22;15818;45.534;5.292;2022-07-29T03:36:57;19.50;99.90
28632;DHT22;15818;45.534;5.292;2022-07-29T03:39:27;19.50;99.90
28632;DHT22;15818;45.534;5.292;2022-07-29T03:41:56;19.50;99.90
28632;DHT22;15818;45.534;5.292;2022-07-29T03:44:24;19.40;99.90
28632;DHT22;15818;45.534;5.292;2022-07-29T03:46:52;19.40;99.90
28632;DHT22;15818;45.534;5.292;2022-07-29T03:49:20;19.50;99.90
28632;DHT22;15818;45.534;5.292;2022-07-29T03:51:47;19.40;99.90
28632;DHT22;15818;45.534;5.292;2022-07-29T03:54:13;19.40;99.90
28632;DHT22;15818;45.534;5.292;2022-07-29T03:56:45;19.40;99.90
28632;DHT22;15818;45.534;5.292;2022-07-29T03:59:14;19.40;99.90
28632;DHT22;15818;45.534;5.292;2022-07-29T04:01:41;19.40;99.90
28632;DHT22;15818;45.534;5.292;2022-07-29T04:04:07;19.40;99.90
28632;DHT22;15818;45.534;5.292;2022-07-29T04:06:44;19.30;99.90
28632;DHT22;15818;45.534;5.292;2022-07-29T04:09:11;19.30;99.90
28632;DHT22;15818;45.534;5.292;2022-07-29T04:11:38;19.30;99.90
28632;DHT22;15818;45.534;5.292;2022-07-29T04:14:05;19.30;99.90
28632;DHT22;15818;45.534;5.292;2022-07-29T04:16:31;19.30;99.90
28632;DHT22;15818;45.534;5.292;2022-07-29T04:18:57;19.30;99.90
28632;DHT22;15818;45.534;5.292;2022-07-29T04:21:22;19.20;99.90
28632;DHT22;15818;45.534;5.292;2022-07-29T04:23:48;19.10;99.90
28632;DHT22;15818;45.534;5.292;2022-07-29T04:26:19;19.20;99.90
28632;DHT22;15818;45.534;5.292;2022-07-29T04:28:45;19.20;99.90
28632;DHT22;15818;45.534;5.292;2022-07-29T04:31:12;19.20;99.90
28632;DHT22;15818;45.534;5.292;2022-07-29T04:33:38;19.30;99.90
28632;DHT22;15818;45.534;5.292;2022-07-29T04:36:04;19.20;99.90
28632;DHT22;15818;45.534;5.292;2022-07-29T04:38:30;19.20;99.90
28632;DHT22;15818;45.534;5.292;2022-07-29T04:40:56;19.20;99.90
28632;DHT22;15818;45.534;5.292;2022-07-29T04:43:22;19.30;99.90
28632;DHT22;15818;45.534;5.292;2022-07-29T04:45:47;19.40;99.90
28632;DHT22;15818;45.534;5.292;2022-07-29T04:48:13;19.50;99.90
28632;DHT22;15818;45.534;5.292;2022-07-29T04:50:39;19.90;99.90
28632;DHT22;15818;45.534;5.292;2022-07-29T04:53:05;20.40;99.90
28632;DHT22;15818;45.534;5.292;2022-07-29T04:55:31;20.40;99.90
28632;DHT22;15818;45.534;5.292;2022-07-29T04:57:57;20.40;99.90
28632;DHT22;15818;45.534;5.292;2022-07-29T05:00:23;20.40;99.90
28632;DHT22;15818;45.534;5.292;2022-07-29T05:02:49;20.30;99.90
28632;DHT22;15818;45.534;5.292;2022-07-29T05:05:15;20.20;99.90
28632;DHT22;15818;45.534;5.292;2022-07-29T05:07:41;20.30;99.90
28632;DHT22;15818;45.534;5.292;2022-07-29T05:10:07;20.30;99.90
28632;DHT22;15818;45.534;5.292;2022-07-29T05:12:33;20.10;99.90
28632;DHT22;15818;45.534;5.292;2022-07-29T05:14:59;20.20;99.90
28632;DHT22;15818;45.534;5.292;2022-07-29T05:17:25;20.10;99.90
28632;DHT22;15818;45.534;5.292;2022-07-29T05:19:50;20.10;99.90
28632;DHT22;15818;45.534;5.292;2022-07-29T05:22:19;20.20;99.90
28632;DHT22;15818;45.534;5.292;2022-07-29T05:24:46;20.50;99.90
28632;DHT22;15818;45.534;5.292;2022-07-29T05:27:12;20.50;99.90
28632;DHT22;15818;45.534;5.292;2022-07-29T05:29:37;20.70;99.90
28632;DHT22;15818;45.534;5.292;2022-07-29T05:32:04;20.60;99.90
28632;DHT22;15818;45.534;5.292;2022-07-29T05:34:30;20.50;99.90
28632;DHT22;15818;45.534;5.292;2022-07-29T05:36:56;20.40;99.90
28632;DHT22;15818;45.534;5.292;2022-07-29T05:39:23;20.40;99.90
28632;DHT22;15818;45.534;5.292;2022-07-29T05:41:48;20.50;99.90
28632;DHT22;15818;45.534;5.292;2022-07-29T05:44:14;20.50;99.90
28632;DHT22;15818;45.534;5.292;2022-07-29T05:46:40;20.50;99.90
28632;DHT22;15818;45.534;5.292;2022-07-29T05:49:06;20.60;99.90
28632;DHT22;15818;45.534;5.292;2022-07-29T05:51:33;20.90;99.90
28632;DHT22;15818;45.534;5.292;2022-07-29T05:53:59;21.00;99.90
28632;DHT22;15818;45.534;5.292;2022-07-29T05:56:25;20.70;99.90
28632;DHT22;15818;45.534;5.292;2022-07-29T05:58:51;20.70;99.90
28632;DHT22;15818;45.534;5.292;2022-07-29T06:01:17;20.20;99.90
28632;DHT22;15818;45.534;5.292;2022-07-29T06:03:43;20.10;99.90
28632;DHT22;15818;45.534;5.292;2022-07-29T06:06:09;19.90;99.90
28632;DHT22;15818;45.534;5.292;2022-07-29T06:08:35;20.10;99.90
28632;DHT22;15818;45.534;5.292;2022-07-29T06:11:02;20.30;99.90
28632;DHT22;15818;45.534;5.292;2022-07-29T06:13:28;20.40;99.90
28632;DHT22;15818;45.534;5.292;2022-07-29T06:15:54;20.40;99.90
28632;DHT22;15818;45.534;5.292;2022-07-29T06:18:20;20.10;99.90
28632;DHT22;15818;45.534;5.292;2022-07-29T06:20:49;20.00;99.90
28632;DHT22;15818;45.534;5.292;2022-07-29T06:23:16;19.90;99.90
28632;DHT22;15818;45.534;5.292;2022-07-29T06:25:41;19.50;99.90
28632;DHT22;15818;45.534;5.292;2022-07-29T06:28:07;18.90;99.90
28632;DHT22;15818;45.534;5.292;2022-07-29T06:30:33;18.50;99.90
28632;DHT22;15818;45.534;5.292;2022-07-29T06:32:59;18.40;99.90
28632;DHT22;15818;45.534;5.292;2022-07-29T06:35:26;18.60;99.90
28632;DHT22;15818;45.534;5.292;2022-07-29T06:37:52;19.30;99.90
28632;DHT22;15818;45.534;5.292;2022-07-29T06:40:18;19.40;99.90
28632;DHT22;15818;45.534;5.292;2022-07-29T06:43:02;19.60;99.90
28632;DHT22;15818;45.534;5.292;2022-07-29T06:45:28;19.90;99.90
28632;DHT22;15818;45.534;5.292;2022-07-29T06:47:53;19.60;99.90
28632;DHT22;15818;45.534;5.292;2022-07-29T06:50:20;18.70;99.90
28632;DHT22;15818;45.534;5.292;2022-07-29T06:52:47;18.50;99.90
28632;DHT22;15818;45.534;5.292;2022-07-29T06:55:13;18.60;99.90
28632;DHT22;15818;45.534;5.292;2022-07-29T06:57:39;18.60;99.90
28632;DHT22;15818;45.534;5.292;2022-07-29T07:00:06;18.50;99.90
28632;DHT22;15818;45.534;5.292;2022-07-29T07:02:32;19.10;99.90
28632;DHT22;15818;45.534;5.292;2022-07-29T07:04:57;19.60;99.90
28632;DHT22;15818;45.534;5.292;2022-07-29T07:07:24;19.80;99.90
28632;DHT22;15818;45.534;5.292;2022-07-29T07:09:50;19.50;99.90
28632;DHT22;15818;45.534;5.292;2022-07-29T07:12:16;19.20;99.90
28632;DHT22;15818;45.534;5.292;2022-07-29T07:14:41;19.50;99.90
28632;DHT22;15818;45.534;5.292;2022-07-29T07:17:07;19.80;99.90
28632;DHT22;15818;45.534;5.292;2022-07-29T07:19:33;19.90;99.90
28632;DHT22;15818;45.534;5.292;2022-07-29T07:21:59;19.70;99.90
28632;DHT22;15818;45.534;5.292;2022-07-29T07:24:25;19.30;99.90
28632;DHT22;15818;45.534;5.292;2022-07-29T07:26:50;18.80;99.90
28632;DHT22;15818;45.534;5.292;2022-07-29T07:29:16;18.20;99.90
28632;DHT22;15818;45.534;5.292;2022-07-29T07:31:42;18.10;99.90
28632;DHT22;15818;45.534;5.292;2022-07-29T07:34:08;18.10;99.90
28632;DHT22;15818;45.534;5.292;2022-07-29T07:36:34;18.40;99.90
28632;DHT22;15818;45.534;5.292;2022-07-29T07:39:00;18.40;99.90
28632;DHT22;15818;45.534;5.292;2022-07-29T07:41:26;18.30;99.90
28632;DHT22;15818;45.534;5.292;2022-07-29T07:43:52;18.70;99.90
28632;DHT22;15818;45.534;5.292;2022-07-29T07:46:17;19.00;99.90
28632;DHT22;15818;45.534;5.292;2022-07-29T07:48:43;18.90;99.90
28632;DHT22;15818;45.534;5.292;2022-07-29T07:51:09;18.90;99.90
28632;DHT22;15818;45.534;5.292;2022-07-29T07:53:35;19.00;99.90
28632;DHT22;15818;45.534;5.292;2022-07-29T07:56:01;19.10;99.90
28632;DHT22;15818;45.534;5.292;2022-07-29T07:58:27;19.20;99.90
28632;DHT22;15818;45.534;5.292;2022-07-29T08:00:53;19.20;99.90
28632;DHT22;15818;45.534;5.292;2022-07-29T08:03:19;19.20;99.90
28632;DHT22;15818;45.534;5.292;2022-07-29T08:05:44;19.10;99.90
28632;DHT22;15818;45.534;5.292;2022-07-29T08:08:11;18.90;99.90
28632;DHT22;15818;45.534;5.292;2022-07-29T08:10:37;18.90;99.90
28632;DHT22;15818;45.534;5.292;2022-07-29T08:13:20;19.10;99.90
28632;DHT22;15818;45.534;5.292;2022-07-29T08:15:47;19.30;99.90
28632;DHT22;15818;45.534;5.292;2022-07-29T08:18:23;19.40;99.90
28632;DHT22;15818;45.534;5.292;2022-07-29T08:20:50;19.50;99.90
28632;DHT22;15818;45.534;5.292;2022-07-29T08:23:16;19.50;99.90
28632;DHT22;15818;45.534;5.292;2022-07-29T08:25:41;19.50;99.90
28632;DHT22;15818;45.534;5.292;2022-07-29T08:28:07;19.40;99.90
28632;DHT22;15818;45.534;5.292;2022-07-29T08:30:33;19.00;99.90
28632;DHT22;15818;45.534;5.292;2022-07-29T08:32:59;18.80;99.90
28632;DHT22;15818;45.534;5.292;2022-07-29T08:35:25;18.70;99.90
28632;DHT22;15818;45.534;5.292;2022-07-29T08:37:51;18.60;99.90
28632;DHT22;15818;45.534;5.292;2022-07-29T08:40:17;18.60;99.90
28632;DHT22;15818;45.534;5.292;2022-07-29T08:42:43;18.60;99.90
28632;DHT22;15818;45.534;5.292;2022-07-29T08:45:09;18.60;99.90
28632;DHT22;15818;45.534;5.292;2022-07-29T08:47:35;18.60;99.90
28632;DHT22;15818;45.534;5.292;2022-07-29T08:50:05;18.50;99.90
28632;DHT22;15818;45.534;5.292;2022-07-29T08:52:37;18.60;99.90
28632;DHT22;15818;45.534;5.292;2022-07-29T08:55:05;18.50;99.90
28632;DHT22;15818;45.534;5.292;2022-07-29T08:57:32;18.30;99.90
28632;DHT22;15818;45.534;5.292;2022-07-29T09:00:00;18.20;99.90
28632;DHT22;15818;45.534;5.292;2022-07-29T09:02:29;18.20;99.90
28632;DHT22;15818;45.534;5.292;2022-07-29T09:04:58;18.20;99.90
28632;DHT22;15818;45.534;5.292;2022-07-29T09:07:25;18.20;99.90
28632;DHT22;15818;45.534;5.292;2022-07-29T09:09:51;18.20;99.90
28632;DHT22;15818;45.534;5.292;2022-07-29T09:12:17;18.20;99.90
28632;DHT22;15818;45.534;5.292;2022-07-29T09:14:42;18.20;99.90
28632;DHT22;15818;45.534;5.292;2022-07-29T09:17:08;17.90;99.90
28632;DHT22;15818;45.534;5.292;2022-07-29T09:19:35;17.70;99.90
28632;DHT22;15818;45.534;5.292;2022-07-29T09:22:04;17.80;99.90
28632;DHT22;15818;45.534;5.292;2022-07-29T09:24:46;17.70;99.90
28632;DHT22;15818;45.534;5.292;2022-07-29T09:27:23;17.70;99.90
28632;DHT22;15818;45.534;5.292;2022-07-29T09:30:09;17.60;99.90
28632;DHT22;15818;45.534;5.292;2022-07-29T09:32:57;17.60;99.90
28632;DHT22;15818;45.534;5.292;2022-07-29T09:35:25;17.70;99.90
28632;DHT22;15818;45.534;5.292;2022-07-29T09:37:51;17.60;99.90
28632;DHT22;15818;45.534;5.292;2022-07-29T09:40:26;17.50;99.90
28632;DHT22;15818;45.534;5.292;2022-07-29T09:42:52;17.40;99.90
28632;DHT22;15818;45.534;5.292;2022-07-29T09:45:28;17.40;99.90
28632;DHT22;15818;45.534;5.292;2022-07-29T09:47:54;17.40;99.90
28632;DHT22;15818;45.534;5.292;2022-07-29T09:50:22;17.40;99.90
28632;DHT22;15818;45.534;5.292;2022-07-29T09:52:59;17.40;99.90
28632;DHT22;15818;45.534;5.292;2022-07-29T09:55:25;17.50;99.90
28632;DHT22;15818;45.534;5.292;2022-07-29T09:57:51;17.40;99.90
28632;DHT22;15818;45.534;5.292;2022-07-29T10:00:19;17.40;99.90
28632;DHT22;15818;45.534;5.292;2022-07-29T10:02:46;17.50;99.90
28632;DHT22;15818;45.534;5.292;2022-07-29T10:05:23;17.50;99.90
28632;DHT22;15818;45.534;5.292;2022-07-29T10:07:57;17.40;99.90
28632;DHT22;15818;45.534;5.292;2022-07-29T10:10:31;17.50;99.90
28632;DHT22;15818;45.534;5.292;2022-07-29T10:12:59;17.50;99.90
28632;DHT22;15818;45.534;5.292;2022-07-29T10:15:27;17.60;99.90
28632;DHT22;15818;45.534;5.292;2022-07-29T10:17:54;17.70;99.90
28632;DHT22;15818;45.534;5.292;2022-07-29T10:20:21;17.70;99.90
28632;DHT22;15818;45.534;5.292;2022-07-29T10:22:48;17.50;99.90
28632;DHT22;15818;45.534;5.292;2022-07-29T10:25:15;17.50;99.90
28632;DHT22;15818;45.534;5.292;2022-07-29T10:27:42;17.60;99.90
28632;DHT22;15818;45.534;5.292;2022-07-29T10:30:08;17.60;99.90
28632;DHT22;15818;45.534;5.292;2022-07-29T10:33:51;17.70;99.90
28632;DHT22;15818;45.534;5.292;2022-07-29T10:41:20;18.00;99.90
28632;DHT22;15818;45.534;5.292;2022-07-29T10:46:20;18.40;99.90
28632;DHT22;15818;45.534;5.292;2022-07-29T10:49:23;18.40;99.90
28632;DHT22;15818;45.534;5.292;2022-07-29T10:54:40;18.60;99.90
28632;DHT22;15818;45.534;5.292;2022-07-29T10:57:30;18.80;99.90
28632;DHT22;15818;45.534;5.292;2022-07-29T11:07:26;19.00;99.90
28632;DHT22;15818;45.534;5.292;2022-07-29T11:15:18;19.20;99.90
28632;DHT22;15818;45.534;5.292;2022-07-29T11:20:41;19.40;99.90
28632;DHT22;15818;45.534;5.292;2022-07-29T11:28:50;20.40;99.90
28632;DHT22;15818;45.534;5.292;2022-07-29T11:31:41;20.80;99.90
28632;DHT22;15818;45.534;5.292;2022-07-29T11:39:38;21.80;99.90
28632;DHT22;15818;45.534;5.292;2022-07-29T11:44:58;21.90;99.90
28632;DHT22;15818;45.534;5.292;2022-07-29T11:47:39;22.60;99.90
28632;DHT22;15818;45.534;5.292;2022-07-29T11:50:11;22.50;99.90
28632;DHT22;15818;45.534;5.292;2022-07-29T11:52:42;23.00;99.90
28632;DHT22;15818;45.534;5.292;2022-07-29T11:58:00;23.20;99.90
28632;DHT22;15818;45.534;5.292;2022-07-29T12:00:31;23.80;99.90
28632;DHT22;15818;45.534;5.292;2022-07-29T12:02:59;24.60;99.90
28632;DHT22;15818;45.534;5.292;2022-07-29T12:05:34;25.20;99.90
28632;DHT22;15818;45.534;5.292;2022-07-29T12:08:11;24.40;99.90
28632;DHT22;15818;45.534;5.292;2022-07-29T12:10:38;24.20;99.90
28632;DHT22;15818;45.534;5.292;2022-07-29T12:13:04;24.50;99.90
28632;DHT22;15818;45.534;5.292;2022-07-29T12:15:30;24.10;99.90
28632;DHT22;15818;45.534;5.292;2022-07-29T12:17:56;23.90;99.90
28632;DHT22;15818;45.534;5.292;2022-07-29T12:20:27;24.50;99.90
28632;DHT22;15818;45.534;5.292;2022-07-29T12:22:54;25.10;99.90
28632;DHT22;15818;45.534;5.292;2022-07-29T12:25:21;25.30;99.90
28632;DHT22;15818;45.534;5.292;2022-07-29T12:27:56;25.60;99.90
28632;DHT22;15818;45.534;5.292;2022-07-29T12:30:22;25.70;99.90
28632;DHT22;15818;45.534;5.292;2022-07-29T12:32:49;26.10;99.90
28632;DHT22;15818;45.534;5.292;2022-07-29T12:35:16;26.00;99.90
28632;DHT22;15818;45.534;5.292;2022-07-29T12:37:46;26.30;99.90
28632;DHT22;15818;45.534;5.292;2022-07-29T12:40:17;26.60;99.90
28632;DHT22;15818;45.534;5.292;2022-07-29T12:43:13;26.20;99.90
28632;DHT22;15818;45.534;5.292;2022-07-29T12:45:45;26.20;99.90
28632;DHT22;15818;45.534;5.292;2022-07-29T12:48:11;26.10;99.90
28632;DHT22;15818;45.534;5.292;2022-07-29T12:50:55;26.30;99.90
28632;DHT22;15818;45.534;5.292;2022-07-29T12:53:21;26.30;99.90
28632;DHT22;15818;45.534;5.292;2022-07-29T12:55:49;26.00;99.90
28632;DHT22;15818;45.534;5.292;2022-07-29T12:58:27;26.30;99.90
28632;DHT22;15818;45.534;5.292;2022-07-29T13:01:20;26.30;99.90
28632;DHT22;15818;45.534;5.292;2022-07-29T13:09:11;25.60;99.90
28632;DHT22;15818;45.534;5.292;2022-07-29T13:14:09;26.30;99.90
28632;DHT22;15818;45.534;5.292;2022-07-29T13:16:37;26.20;99.90
28632;DHT22;15818;45.534;5.292;2022-07-29T13:19:33;26.60;99.90
28632;DHT22;15818;45.534;5.292;2022-07-29T13:21:59;27.00;99.90
28632;DHT22;15818;45.534;5.292;2022-07-29T13:24:25;26.70;99.90
28632;DHT22;15818;45.534;5.292;2022-07-29T13:26:50;26.80;99.90
28632;DHT22;15818;45.534;5.292;2022-07-29T13:29:17;27.10;99.90
28632;DHT22;15818;45.534;5.292;2022-07-29T13:31:43;27.40;99.90
28632;DHT22;15818;45.534;5.292;2022-07-29T13:34:09;26.70;99.90
28632;DHT22;15818;45.534;5.292;2022-07-29T13:36:34;26.50;99.90
28632;DHT22;15818;45.534;5.292;2022-07-29T13:39:00;26.80;99.90
28632;DHT22;15818;45.534;5.292;2022-07-29T13:41:28;27.00;99.90
28632;DHT22;15818;45.534;5.292;2022-07-29T13:43:54;27.20;99.90
28632;DHT22;15818;45.534;5.292;2022-07-29T13:46:20;26.90;99.90
28632;DHT22;15818;45.534;5.292;2022-07-29T13:48:46;27.00;99.90
28632;DHT22;15818;45.534;5.292;2022-07-29T13:51:12;27.20;99.90
28632;DHT22;15818;45.534;5.292;2022-07-29T13:53:38;27.10;99.90
28632;DHT22;15818;45.534;5.292;2022-07-29T13:56:04;26.90;99.90
28632;DHT22;15818;45.534;5.292;2022-07-29T13:58:33;26.80;99.90
28632;DHT22;15818;45.534;5.292;2022-07-29T14:00:59;26.80;99.90
28632;DHT22;15818;45.534;5.292;2022-07-29T14:03:25;26.90;99.90
28632;DHT22;15818;45.534;5.292;2022-07-29T14:05:51;26.90;99.90
28632;DHT22;15818;45.534;5.292;2022-07-29T14:08:17;26.50;99.90
28632;DHT22;15818;45.534;5.292;2022-07-29T14:10:44;26.70;99.90
28632;DHT22;15818;45.534;5.292;2022-07-29T14:13:10;26.80;99.90
28632;DHT22;15818;45.534;5.292;2022-07-29T14:15:36;26.80;99.90
28632;DHT22;15818;45.534;5.292;2022-07-29T14:18:02;26.70;99.90
28632;DHT22;15818;45.534;5.292;2022-07-29T14:20:27;26.80;99.90
28632;DHT22;15818;45.534;5.292;2022-07-29T14:22:55;26.40;99.90
28632;DHT22;15818;45.534;5.292;2022-07-29T14:25:22;26.00;99.90
28632;DHT22;15818;45.534;5.292;2022-07-29T14:27:48;26.20;99.90
28632;DHT22;15818;45.534;5.292;2022-07-29T14:30:14;26.10;99.90
28632;DHT22;15818;45.534;5.292;2022-07-29T14:32:39;26.10;99.90
28632;DHT22;15818;45.534;5.292;2022-07-29T14:35:06;25.90;99.90
28632;DHT22;15818;45.534;5.292;2022-07-29T14:37:32;26.10;99.90
28632;DHT22;15818;45.534;5.292;2022-07-29T14:39:57;26.30;99.90
28632;DHT22;15818;45.534;5.292;2022-07-29T14:42:27;26.60;99.90
28632;DHT22;15818;45.534;5.292;2022-07-29T14:44:52;26.60;99.90
28632;DHT22;15818;45.534;5.292;2022-07-29T14:47:19;26.20;99.90
28632;DHT22;15818;45.534;5.292;2022-07-29T14:49:44;26.00;99.90
28632;DHT22;15818;45.534;5.292;2022-07-29T14:52:10;25.90;99.90
28632;DHT22;15818;45.534;5.292;2022-07-29T14:54:36;25.80;99.90
28632;DHT22;15818;45.534;5.292;2022-07-29T14:57:02;25.90;99.90
28632;DHT22;15818;45.534;5.292;2022-07-29T14:59:27;26.10;99.90
28632;DHT22;15818;45.534;5.292;2022-07-29T15:01:53;26.00;99.90
28632;DHT22;15818;45.534;5.292;2022-07-29T15:04:19;26.00;99.90
28632;DHT22;15818;45.534;5.292;2022-07-29T15:06:45;26.00;99.90
28632;DHT22;15818;45.534;5.292;2022-07-29T15:09:11;25.80;99.90
28632;DHT22;15818;45.534;5.292;2022-07-29T15:11:37;25.80;99.90
28632;DHT22;15818;45.534;5.292;2022-07-29T15:14:03;25.70;99.90
28632;DHT22;15818;45.534;5.292;2022-07-29T15:16:28;25.80;99.90
28632;DHT22;15818;45.534;5.292;2022-07-29T15:18:54;25.80;99.90
28632;DHT22;15818;45.534;5.292;2022-07-29T15:21:23;25.80;99.90
28632;DHT22;15818;45.534;5.292;2022-07-29T15:23:49;25.70;99.90
28632;DHT22;15818;45.534;5.292;2022-07-29T15:26:15;25.70;99.90
28632;DHT22;15818;45.534;5.292;2022-07-29T15:28:40;25.80;99.90
28632;DHT22;15818;45.534;5.292;2022-07-29T15:31:06;25.70;99.90
28632;DHT22;15818;45.534;5.292;2022-07-29T15:33:32;25.70;99.90
28632;DHT22;15818;45.534;5.292;2022-07-29T15:35:59;25.70;99.90
28632;DHT22;15818;45.534;5.292;2022-07-29T15:38:25;26.00;99.90
28632;DHT22;15818;45.534;5.292;2022-07-29T15:40:50;26.10;99.90
28632;DHT22;15818;45.534;5.292;2022-07-29T15:43:16;26.00;99.90
28632;DHT22;15818;45.534;5.292;2022-07-29T15:45:42;26.00;99.90
28632;DHT22;15818;45.534;5.292;2022-07-29T15:48:27;25.80;99.90
28632;DHT22;15818;45.534;5.292;2022-07-29T15:50:52;25.80;99.90
28632;DHT22;15818;45.534;5.292;2022-07-29T15:53:18;25.80;99.90
28632;DHT22;15818;45.534;5.292;2022-07-29T15:55:44;25.90;99.90
28632;DHT22;15818;45.534;5.292;2022-07-29T15:58:09;25.90;99.90
28632;DHT22;15818;45.534;5.292;2022-07-29T16:00:35;25.70;99.90
28632;DHT22;15818;45.534;5.292;2022-07-29T16:03:01;25.70;99.90
28632;DHT22;15818;45.534;5.292;2022-07-29T16:05:27;25.70;99.90
28632;DHT22;15818;45.534;5.292;2022-07-29T16:07:54;25.60;99.90
28632;DHT22;15818;45.534;5.292;2022-07-29T16:10:20;25.70;99.90
28632;DHT22;15818;45.534;5.292;2022-07-29T16:12:45;25.80;99.90
28632;DHT22;15818;45.534;5.292;2022-07-29T16:15:11;25.70;99.90
28632;DHT22;15818;45.534;5.292;2022-07-29T16:17:37;25.70;99.90
28632;DHT22;15818;45.534;5.292;2022-07-29T16:20:05;25.50;99.90
28632;DHT22;15818;45.534;5.292;2022-07-29T16:22:30;25.40;99.90
28632;DHT22;15818;45.534;5.292;2022-07-29T16:24:56;25.40;99.90
28632;DHT22;15818;45.534;5.292;2022-07-29T16:27:22;25.50;99.90
28632;DHT22;15818;45.534;5.292;2022-07-29T16:29:51;25.40;99.90
28632;DHT22;15818;45.534;5.292;2022-07-29T16:32:17;25.20;99.90
28632;DHT22;15818;45.534;5.292;2022-07-29T16:34:43;25.20;99.90
28632;DHT22;15818;45.534;5.292;2022-07-29T16:37:09;25.20;99.90